Accueil
METAR-TAF:

METAR-TAF

Aéroports :

Aéroport de Metz-Nancy-Lorraine

Metz-Nancy-Lorraine, France

latitude: 48-59N, longitude: 006-15E, altitude: 264 m

Observation

Le bulletin a été fait il y a 17 minutes, à 22:00 UTC
Vent 2 kt de direction variable
Température -4°C
Humidité 93%
Pression 1018 hPa
Visibilité: 5000 m
brume

METAR: LFJL 202200Z AUTO VRB02KT 5000 BR NSC M04/M05 Q1018 NOSIG

Heure: 23:17 (22:17 UTC)

Prévision

Le bulletin a été fait il y a 5 heures et 11 minutes, à 17:06 UTC
Prévision valable du 20 à 18 UTC au 21 à 18 UTC
Vent 6 kt de nord-est
Visibilité: 8000 m
Quelques nuages à une hauteur de 1500 ft
Nuages épars à une hauteur de 2500 ft
Probabilité 40% :
Temporairement
du 20 à 23 UTC au 21 à 08 UTC
Visibilité: 4000 m
brume

TAF: LFJL 201706Z 2018/2118 05006KT 8000 FEW015 SCT025 PROB40 TEMPO 2023/2108 4000 BR

Observations et prévisions météorologiques de plus de 4000 aéroports (messages METAR et TAF).

Les stations disponibles sont représentées par des disques jaunes et rouges sur la carte.

Passer la souris dessus pour voir le nom de la station.

Cliquer dessus pour voir les observations et prévisions météorologiques.

Pour changer de carte: cliquez sur les boutons verts avec une croix noire pour zoomer, sur le bouton vert avec un tiret pour effectuer un zoom arrière, ou sur les flèches vertes pour les cartes adjacentes.


METAR-TAF: